Test XHTML 1.0 Strict Page for WU-History Testing
Datos historicos para Xert
Diario Historicos para Julio 11, 2025 unidades:  Imperiales    Metrico   Ambos
« Anterior Dia
Proximo Dia »
Diario Semanal Mensual Anual Personalizado
  Max: Min: Promedio:
Temperatura: 80.6 °F 71.6 °F 74.8 °F
Punto de rocio: 73.4 °F 68 °F 70 °F
Humedad: 92% 74% 85%
Viento: 14.9mph 0mph 4.7mph
Rafagas: 14.9mph - -
Viento- - SSE
Presion: 30 in 29.9 in -
Lluvia: 0 in    
Historical Graphs
 
 
Observa nuestra WebCam, mapa de radar de tormentas para Europa y mapa del radar de nuvosidad

Weather Camera

Radar Tormentas

Radar Sat24

Radar Meteociel





Condiciones meteorologicas Actuales:

Datos tabulados para Julio 11, 2025
Hora Temperatura Punto Rocio Presion Viento Viento Rafagas Humedad Tasa lluvia (1 hora) solar Condiciones
00:00 73.4 °F 69.8 °F 30 in Calm   1.9 mph 90% 0 in 0.00 W/m2 unknown
00:13 73.4 °F 69.8 °F 30 in SE 1.2 mph 1.2 mph 90% 0 in 0.00 W/m2 unknown
00:19 73.4 °F 69.8 °F 30 in SE 5 mph 5 mph 90% 0 in 0.00 W/m2 unknown
00:24 73.4 °F 69.8 °F 30 in SE 3.1 mph 5 mph 90% 0 in 0.00 W/m2 unknown
00:29 73.4 °F 69.8 °F 30 in SE 6.8 mph 6.8 mph 90% 0 in 0.00 W/m2 unknown
00:34 73.4 °F 69.8 °F 30 in SSE 5 mph 6.8 mph 90% 0 in 0.00 W/m2 unknown
00:39 73.4 °F 69.8 °F 30 in SE 5 mph 5 mph 90% 0 in 0.00 W/m2 unknown
00:44 73.4 °F 69.8 °F 30 in SE 3.7 mph 5 mph 90% 0 in 0.00 W/m2 unknown
00:49 73.4 °F 69.8 °F 30 in ESE 5 mph 6.2 mph 91% 0 in 0.00 W/m2 unknown
00:54 73.4 °F 69.8 °F 30 in ESE 6.2 mph 6.2 mph 91% 0 in 0.00 W/m2 unknown
00:59 71.6 °F 69.8 °F 30 in SE 5 mph 6.2 mph 91% 0 in 0.00 W/m2 unknown
01:04 71.6 °F 69.8 °F 30 in SSE 3.7 mph 6.2 mph 92% 0 in 0.00 W/m2 unknown
01:09 71.6 °F 69.8 °F 30 in SE 3.1 mph 3.7 mph 92% 0 in 0.00 W/m2 unknown
01:13 71.6 °F 69.8 °F 30 in ESE 6.8 mph 6.8 mph 92% 0 in 0.00 W/m2 unknown
01:19 71.6 °F 69.8 °F 30 in SE 5 mph 6.8 mph 92% 0 in 0.00 W/m2 unknown
01:24 71.6 °F 69.8 °F 30 in ESE 1.9 mph 3.1 mph 91% 0 in 0.00 W/m2 unknown
01:29 71.6 °F 69.8 °F 30 in SSE 3.7 mph 3.7 mph 91% 0 in 0.00 W/m2 unknown
01:34 71.6 °F 69.8 °F 30 in SSE 3.1 mph 6.2 mph 91% 0 in 0.00 W/m2 unknown
01:39 71.6 °F 69.8 °F 30 in SE 1.2 mph 3.1 mph 91% 0 in 0.00 W/m2 unknown
01:44 71.6 °F 69.8 °F 30 in SE 1.9 mph 1.9 mph 90% 0 in 0.00 W/m2 unknown
01:49 71.6 °F 69.8 °F 30 in SE 1.9 mph 3.1 mph 90% 0 in 0.00 W/m2 unknown
01:54 71.6 °F 69.8 °F 30 in SSW 3.7 mph 3.7 mph 91% 0 in 0.00 W/m2 unknown
01:59 71.6 °F 69.8 °F 30 in SSE 3.7 mph 3.7 mph 91% 0 in 0.00 W/m2 unknown
02:04 71.6 °F 69.8 °F 30 in South 3.7 mph 3.7 mph 91% 0 in 0.00 W/m2 unknown
02:09 71.6 °F 69.8 °F 30 in South 6.2 mph 6.2 mph 92% 0 in 0.00 W/m2 unknown
02:14 71.6 °F 69.8 °F 30 in SSE 3.7 mph 6.2 mph 92% 0 in 0.00 W/m2 unknown
02:19 71.6 °F 69.8 °F 30 in SE 1.9 mph 3.1 mph 92% 0 in 0.00 W/m2 unknown
02:24 71.6 °F 69.8 °F 30 in SE 3.1 mph 3.1 mph 92% 0 in 0.00 W/m2 unknown
02:29 71.6 °F 69.8 °F 30 in SE 3.1 mph 3.1 mph 92% 0 in 0.00 W/m2 unknown
02:34 71.6 °F 69.8 °F 30 in ESE 3.7 mph 3.7 mph 92% 0 in 0.00 W/m2 unknown
02:39 71.6 °F 69.8 °F 30 in ESE 6.2 mph 6.2 mph 92% 0 in 0.00 W/m2 unknown
02:44 71.6 °F 69.8 °F 30 in SE 3.7 mph 6.2 mph 92% 0 in 0.00 W/m2 unknown
02:49 71.6 °F 69.8 °F 30 in ESE 3.7 mph 6.8 mph 92% 0 in 0.00 W/m2 unknown
02:54 71.6 °F 69.8 °F 30 in SE 3.1 mph 3.7 mph 92% 0 in 0.00 W/m2 unknown
02:58 71.6 °F 69.8 °F 30 in SE 3.1 mph 3.1 mph 91% 0 in 0.00 W/m2 unknown
03:04 71.6 °F 69.8 °F 30 in SE 3.7 mph 3.7 mph 91% 0 in 0.00 W/m2 unknown
03:09 71.6 °F 69.8 °F 30 in SE 3.7 mph 3.7 mph 91% 0 in 0.00 W/m2 unknown
03:14 71.6 °F 69.8 °F 30 in ESE 5 mph 5 mph 91% 0 in 0.00 W/m2 unknown
03:19 71.6 °F 69.8 °F 30 in SE 3.7 mph 5 mph 91% 0 in 0.00 W/m2 unknown
03:24 71.6 °F 69.8 °F 30 in SSE 3.7 mph 3.7 mph 91% 0 in 0.00 W/m2 unknown
03:29 71.6 °F 69.8 °F 30 in SSE 3.1 mph 3.7 mph 91% 0 in 0.00 W/m2 unknown
03:34 71.6 °F 69.8 °F 30 in SE 1.9 mph 1.9 mph 91% 0 in 0.00 W/m2 unknown
03:39 71.6 °F 69.8 °F 30 in SSE 3.1 mph 3.1 mph 91% 0 in 0.00 W/m2 unknown
03:44 71.6 °F 69.8 °F 30 in ESE 3.1 mph 3.1 mph 91% 0 in 0.00 W/m2 unknown
03:49 71.6 °F 69.8 °F 30 in SE 3.1 mph 3.1 mph 91% 0 in 0.00 W/m2 unknown
03:54 71.6 °F 69.8 °F 30 in SE 3.1 mph 3.1 mph 91% 0 in 0.00 W/m2 unknown
03:59 71.6 °F 69.8 °F 30 in SE 1.2 mph 1.9 mph 91% 0 in 0.00 W/m2 unknown
04:04 71.6 °F 69.8 °F 30 in ESE 1.2 mph 1.9 mph 91% 0 in 0.00 W/m2 unknown
04:09 71.6 °F 69.8 °F 30 in SSE 1.9 mph 1.9 mph 91% 0 in 0.00 W/m2 unknown
04:14 71.6 °F 69.8 °F 30 in South 3.1 mph 3.1 mph 91% 0 in 0.00 W/m2 unknown
04:19 71.6 °F 69.8 °F 30 in South 3.1 mph 3.1 mph 90% 0 in 0.00 W/m2 unknown
04:24 71.6 °F 68 °F 30 in South 3.1 mph 3.1 mph 90% 0 in 0.00 W/m2 unknown
04:29 71.6 °F 68 °F 30 in SE 1.2 mph 3.1 mph 90% 0 in 0.00 W/m2 unknown
04:34 71.6 °F 69.8 °F 30 in East 1.2 mph 1.9 mph 90% 0 in 0.00 W/m2 unknown
04:39 71.6 °F 68 °F 30 in SE 1.9 mph 1.9 mph 90% 0 in 0.00 W/m2 unknown
04:44 71.6 °F 68 °F 30 in SSW 1.9 mph 1.9 mph 90% 0 in 0.00 W/m2 unknown
04:49 71.6 °F 68 °F 30 in WSW 1.9 mph 1.9 mph 90% 0 in 0.00 W/m2 unknown
04:54 71.6 °F 68 °F 30 in WSW 1.9 mph 1.9 mph 90% 0 in 0.00 W/m2 unknown
04:59 71.6 °F 68 °F 30 in West 1.9 mph 1.9 mph 89% 0 in 0.00 W/m2 unknown
05:04 71.6 °F 68 °F 30 in West 1.2 mph 1.9 mph 89% 0 in 0.00 W/m2 unknown
05:09 71.6 °F 68 °F 30 in West 1.2 mph 1.2 mph 89% 0 in 0.00 W/m2 unknown
05:14 71.6 °F 68 °F 30 in West 1.9 mph 1.9 mph 88% 0 in 0.00 W/m2 unknown
05:19 71.6 °F 68 °F 30 in West 1.2 mph 1.9 mph 88% 0 in 0.00 W/m2 unknown
05:24 71.6 °F 68 °F 30 in West 1.9 mph 1.9 mph 88% 0 in 0.00 W/m2 unknown
05:29 71.6 °F 68 °F 30 in West 1.9 mph 1.9 mph 88% 0 in 0.00 W/m2 unknown
05:34 71.6 °F 68 °F 30 in WSW 3.1 mph 3.1 mph 88% 0 in 0.00 W/m2 unknown
05:39 71.6 °F 68 °F 30 in WSW 1.9 mph 3.1 mph 87% 0 in 0.00 W/m2 unknown
05:43 71.6 °F 68 °F 30 in SW 1.9 mph 1.9 mph 87% 0 in 0.00 W/m2 unknown
05:49 71.6 °F 68 °F 30 in WSW 3.1 mph 3.1 mph 88% 0 in 0.00 W/m2 unknown
05:54 71.6 °F 68 °F 30 in West 1.9 mph 3.1 mph 87% 0 in 0.00 W/m2 unknown
05:59 71.6 °F 68 °F 30 in West 1.9 mph 1.9 mph 87% 0 in 0.00 W/m2 unknown
06:04 71.6 °F 68 °F 30 in WSW 1.9 mph 1.9 mph 87% 0 in 0.00 W/m2 unknown
06:09 71.6 °F 68 °F 30 in WSW 1.9 mph 1.9 mph 87% 0 in 0.00 W/m2 unknown
06:14 71.6 °F 68 °F 30 in WSW 1.2 mph 1.9 mph 87% 0 in 0.00 W/m2 unknown
06:19 71.6 °F 68 °F 30 in SSW 1.2 mph 1.9 mph 87% 0 in 0.00 W/m2 unknown
06:24 71.6 °F 68 °F 30 in SSW 1.2 mph 1.9 mph 88% 0 in 0.00 W/m2 unknown
06:29 71.6 °F 68 °F 30 in South 1.9 mph 1.9 mph 88% 0 in 0.00 W/m2 unknown
06:34 71.6 °F 68 °F 30 in SSE 1.9 mph 1.9 mph 88% 0 in 0.00 W/m2 unknown
06:39 71.6 °F 68 °F 30 in Calm   1.2 mph 88% 0 in 0.00 W/m2 unknown
06:44 71.6 °F 68 °F 30 in ENE 1.2 mph 1.2 mph 89% 0 in 0.00 W/m2 unknown
06:49 71.6 °F 68 °F 30 in ENE 1.2 mph 1.9 mph 89% 0 in 0.00 W/m2 unknown
06:54 71.6 °F 68 °F 30 in ENE 1.9 mph 1.9 mph 89% 0 in 0.00 W/m2 unknown
06:59 71.6 °F 68 °F 30 in ENE 1.9 mph 1.9 mph 89% 0 in 0.00 W/m2 unknown
07:04 71.6 °F 68 °F 30 in ENE 1.2 mph 1.9 mph 89% 0 in 9.00 W/m2 unknown
07:09 71.6 °F 68 °F 30 in ENE 1.9 mph 1.9 mph 90% 0 in 11.00 W/m2 unknown
07:14 71.6 °F 68 °F 30 in ENE 1.9 mph 1.9 mph 89% 0 in 12.00 W/m2 unknown
07:19 71.6 °F 68 °F 30 in Calm   1.9 mph 89% 0 in 12.00 W/m2 unknown
07:24 71.6 °F 68 °F 30 in NE 1.2 mph 1.2 mph 89% 0 in 16.00 W/m2 unknown
07:29 71.6 °F 68 °F 30 in North 1.9 mph 1.9 mph 89% 0 in 21.00 W/m2 unknown
07:34 71.6 °F 68 °F 30 in North 1.9 mph 1.9 mph 89% 0 in 23.00 W/m2 unknown
07:39 71.6 °F 68 °F 30 in North 1.2 mph 1.9 mph 89% 0 in 32.00 W/m2 unknown
07:44 71.6 °F 68 °F 30 in Calm   1.2 mph 89% 0 in 37.00 W/m2 unknown
07:48 71.6 °F 68 °F 30 in North 1.2 mph 1.9 mph 89% 0 in 44.00 W/m2 unknown
07:54 71.6 °F 68 °F 30 in North 1.9 mph 1.9 mph 89% 0 in 47.00 W/m2 unknown
07:59 71.6 °F 68 °F 30 in North 1.9 mph 1.9 mph 89% 0 in 53.00 W/m2 unknown
08:04 71.6 °F 69.8 °F 30 in WNW 1.2 mph 1.9 mph 89% 0 in 54.00 W/m2 unknown
08:09 71.6 °F 68 °F 30 in West 1.2 mph 1.2 mph 88% 0 in 56.00 W/m2 unknown
08:14 71.6 °F 68 °F 30 in West 1.2 mph 1.2 mph 88% 0 in 58.00 W/m2 unknown
08:19 71.6 °F 68 °F 30 in West 1.9 mph 1.9 mph 88% 0 in 63.00 W/m2 unknown
08:24 71.6 °F 68 °F 30 in West 1.9 mph 1.9 mph 88% 0 in 84.00 W/m2 unknown
08:29 71.6 °F 68 °F 30 in West 1.2 mph 1.9 mph 88% 0 in 93.00 W/m2 unknown
08:34 73.4 °F 69.8 °F 30 in West 1.2 mph 1.9 mph 88% 0 in 95.00 W/m2 unknown
08:39 73.4 °F 68 °F 30 in West 1.2 mph 1.2 mph 88% 0 in 105.00 W/m2 unknown
08:44 73.4 °F 69.8 °F 30 in West 1.9 mph 1.9 mph 88% 0 in 111.00 W/m2 unknown
08:49 73.4 °F 68 °F 30 in West 1.9 mph 3.1 mph 87% 0 in 107.00 W/m2 unknown
08:54 73.4 °F 68 °F 30 in West 1.9 mph 1.9 mph 86% 0 in 95.00 W/m2 unknown
08:59 73.4 °F 68 °F 30 in West 1.9 mph 1.9 mph 86% 0 in 104.00 W/m2 unknown
09:04 73.4 °F 69.8 °F 30 in WSW 1.9 mph 1.9 mph 86% 0 in 116.00 W/m2 unknown
09:09 73.4 °F 68 °F 30 in SW 1.2 mph 1.9 mph 85% 0 in 107.00 W/m2 unknown
09:14 73.4 °F 68 °F 30 in SSW 1.9 mph 1.9 mph 85% 0 in 91.00 W/m2 unknown
09:19 73.4 °F 69.8 °F 30 in SSW 1.9 mph 1.9 mph 85% 0 in 86.00 W/m2 unknown
09:24 73.4 °F 69.8 °F 30 in SW 1.2 mph 1.2 mph 85% 0 in 100.00 W/m2 unknown
09:29 73.4 °F 68 °F 30 in SSE 1.9 mph 1.9 mph 84% 0 in 113.00 W/m2 unknown
09:34 73.4 °F 69.8 °F 30 in SW 1.9 mph 3.1 mph 85% 0 in 118.00 W/m2 unknown
09:39 73.4 °F 69.8 °F 30 in South 1.9 mph 1.9 mph 85% 0 in 127.00 W/m2 unknown
09:44 73.4 °F 69.8 °F 30 in South 3.1 mph 3.1 mph 85% 0 in 134.00 W/m2 unknown
09:48 73.4 °F 69.8 °F 30 in South 1.9 mph 3.1 mph 85% 0 in 141.00 W/m2 unknown
09:54 73.4 °F 69.8 °F 30 in South 1.2 mph 1.2 mph 85% 0 in 144.00 W/m2 unknown
09:59 73.4 °F 69.8 °F 30 in SSW 3.7 mph 3.7 mph 85% 0 in 146.00 W/m2 unknown
10:04 73.4 °F 69.8 °F 30 in SSW 3.7 mph 3.7 mph 85% 0 in 142.00 W/m2 unknown
10:09 73.4 °F 69.8 °F 30 in SSW 5 mph 5 mph 86% 0 in 132.00 W/m2 unknown
10:14 73.4 °F 69.8 °F 30 in South 1.9 mph 1.9 mph 86% 0 in 162.00 W/m2 unknown
10:19 73.4 °F 69.8 °F 30 in SW 1.9 mph 3.7 mph 86% 0 in 162.00 W/m2 unknown
10:23 75.2 °F 69.8 °F 30 in NNE 1.9 mph 1.9 mph 86% 0 in 127.00 W/m2 unknown
10:29 75.2 °F 69.8 °F 30 in SSE 6.2 mph 6.2 mph 86% 0 in 135.00 W/m2 unknown
10:34 75.2 °F 69.8 °F 30 in SSE 6.8 mph 6.8 mph 87% 0 in 100.00 W/m2 unknown
10:39 73.4 °F 69.8 °F 30 in South 3.7 mph 6.8 mph 88% 0 in 176.00 W/m2 unknown
10:44 73.4 °F 69.8 °F 30 in South 1.9 mph 3.1 mph 89% 0 in 218.00 W/m2 unknown
10:49 73.4 °F 69.8 °F 30 in West 3.1 mph 3.1 mph 89% 0 in 246.00 W/m2 unknown
10:54 75.2 °F 69.8 °F 30 in West 1.9 mph 1.9 mph 88% 0 in 267.00 W/m2 unknown
10:58 75.2 °F 69.8 °F 30 in ESE 1.2 mph 1.9 mph 87% 0 in 281.00 W/m2 unknown
11:04 75.2 °F 69.8 °F 30 in SE 1.9 mph 1.9 mph 87% 0 in 278.00 W/m2 unknown
11:09 75.2 °F 69.8 °F 30 in SE 1.9 mph 1.9 mph 86% 0 in 264.00 W/m2 unknown
11:14 75.2 °F 71.6 °F 30 in South 3.1 mph 3.1 mph 86% 0 in 355.00 W/m2 unknown
11:19 75.2 °F 71.6 °F 30 in NW 3.1 mph 3.1 mph 85% 0 in 399.00 W/m2 unknown
11:24 75.2 °F 71.6 °F 30 in NE 1.2 mph 3.1 mph 85% 0 in 371.00 W/m2 unknown
11:29 77 °F 71.6 °F 30 in SE 1.2 mph 1.2 mph 84% 0 in 353.00 W/m2 unknown
11:34 77 °F 71.6 °F 30 in SSW 3.7 mph 3.7 mph 84% 0 in 279.00 W/m2 unknown
11:38 77 °F 71.6 °F 30 in South 6.2 mph 6.2 mph 84% 0 in 287.00 W/m2 unknown
11:44 77 °F 71.6 °F 30 in SE 6.2 mph 6.2 mph 83% 0 in 443.00 W/m2 unknown
11:49 77 °F 71.6 °F 30 in SSE 3.7 mph 6.2 mph 84% 0 in 547.00 W/m2 unknown
11:54 77 °F 71.6 °F 30 in ESE 8.1 mph 8.1 mph 83% 0 in 392.00 W/m2 unknown
11:58 77 °F 71.6 °F 30 in ESE 6.2 mph 8.1 mph 83% 0 in 313.00 W/m2 unknown
12:04 77 °F 71.6 °F 30 in SE 6.2 mph 8.7 mph 83% 0 in 392.00 W/m2 unknown
12:09 77 °F 71.6 °F 30 in ENE 3.7 mph 6.2 mph 84% 0 in 410.00 W/m2 unknown
12:13 77 °F 71.6 °F 30 in SE 6.2 mph 6.2 mph 84% 0 in 378.00 W/m2 unknown
12:18 77 °F 71.6 °F 30 in SE 6.8 mph 6.8 mph 83% 0 in 413.00 W/m2 unknown
12:24 77 °F 71.6 °F 30 in East 8.1 mph 8.1 mph 83% 0 in 1090.00 W/m2 unknown
12:29 77 °F 71.6 °F 30 in SSE 6.2 mph 8.1 mph 83% 0 in 1090.00 W/m2 unknown
12:34 77 °F 71.6 °F 30 in ENE 6.8 mph 8.1 mph 82% 0 in 524.00 W/m2 unknown
12:39 77 °F 71.6 °F 30 in ESE 6.8 mph 6.8 mph 81% 0 in 454.00 W/m2 unknown
12:44 77 °F 71.6 °F 30 in ESE 8.1 mph 8.1 mph 82% 0 in 413.00 W/m2 unknown
12:49 78.8 °F 71.6 °F 30 in ESE 5 mph 8.1 mph 81% 0 in 329.00 W/m2 unknown
12:54 77 °F 71.6 °F 30 in ESE 9.9 mph 9.9 mph 82% 0 in 218.00 W/m2 unknown
12:59 77 °F 71.6 °F 30 in East 8.7 mph 9.9 mph 84% 0 in 390.00 W/m2 unknown
13:04 77 °F 71.6 °F 30 in ENE 8.7 mph 9.9 mph 84% 0 in 471.00 W/m2 unknown
13:09 77 °F 71.6 °F 30 in ENE 6.8 mph 8.7 mph 83% 0 in 362.00 W/m2 unknown
13:14 78.8 °F 71.6 °F 30 in ENE 6.8 mph 6.8 mph 83% 0 in 276.00 W/m2 unknown
13:19 78.8 °F 71.6 °F 30 in ESE 8.7 mph 8.7 mph 82% 0 in 789.00 W/m2 unknown
13:24 78.8 °F 71.6 °F 30 in ESE 8.1 mph 8.1 mph 80% 0 in 1243.00 W/m2 unknown
13:29 78.8 °F 71.6 °F 30 in SE 13 mph 13 mph 80% 0 in 1113.00 W/m2 unknown
13:34 78.8 °F 71.6 °F 30 in ESE 9.9 mph 13 mph 79% 0 in 742.00 W/m2 unknown
13:38 78.8 °F 71.6 °F 29.9 in ESE 8.1 mph 9.9 mph 79% 0 in 1150.00 W/m2 unknown
13:44 78.8 °F 73.4 °F 29.9 in East 8.1 mph 9.9 mph 80% 0 in 1150.00 W/m2 unknown
13:49 78.8 °F 73.4 °F 29.9 in East 8.1 mph 8.7 mph 79% 0 in 396.00 W/m2 unknown
13:54 78.8 °F 71.6 °F 29.9 in ESE 6.8 mph 8.1 mph 79% 0 in 487.00 W/m2 unknown
13:59 78.8 °F 71.6 °F 29.9 in East 6.2 mph 6.8 mph 79% 0 in 265.00 W/m2 unknown
14:04 78.8 °F 71.6 °F 29.9 in ESE 9.9 mph 9.9 mph 80% 0 in 318.00 W/m2 unknown
14:09 78.8 °F 71.6 °F 29.9 in East 8.1 mph 9.9 mph 82% 0 in 255.00 W/m2 unknown
14:14 78.8 °F 71.6 °F 29.9 in ESE 8.1 mph 9.9 mph 82% 0 in 213.00 W/m2 unknown
14:19 78.8 °F 71.6 °F 29.9 in ESE 8.1 mph 9.9 mph 81% 0 in 214.00 W/m2 unknown
14:24 78.8 °F 71.6 °F 29.9 in East 8.7 mph 8.7 mph 79% 0 in 306.00 W/m2 unknown
14:29 78.8 °F 71.6 °F 29.9 in ENE 6.8 mph 8.7 mph 79% 0 in 350.00 W/m2 unknown
14:34 78.8 °F 71.6 °F 29.9 in East 6.2 mph 8.7 mph 80% 0 in 243.00 W/m2 unknown
14:39 78.8 °F 71.6 °F 29.9 in East 6.2 mph 6.2 mph 79% 0 in 202.00 W/m2 unknown
14:44 78.8 °F 71.6 °F 29.9 in East 5 mph 6.2 mph 79% 0 in 260.00 W/m2 unknown
14:49 78.8 °F 71.6 °F 29.9 in ENE 6.2 mph 6.2 mph 80% 0 in 197.00 W/m2 unknown
14:54 78.8 °F 71.6 °F 29.9 in ENE 8.1 mph 8.1 mph 80% 0 in 290.00 W/m2 unknown
14:59 78.8 °F 71.6 °F 29.9 in East 8.7 mph 8.7 mph 80% 0 in 251.00 W/m2 unknown
15:04 78.8 °F 71.6 °F 29.9 in East 6.8 mph 8.7 mph 80% 0 in 223.00 W/m2 unknown
15:09 78.8 °F 71.6 °F 29.9 in ESE 6.8 mph 6.8 mph 79% 0 in 142.00 W/m2 unknown
15:14 78.8 °F 71.6 °F 29.9 in East 8.1 mph 8.1 mph 78% 0 in 111.00 W/m2 unknown
15:18 78.8 °F 71.6 °F 29.9 in ENE 6.8 mph 8.1 mph 78% 0 in 116.00 W/m2 unknown
15:24 78.8 °F 71.6 °F 29.9 in East 6.2 mph 6.2 mph 78% 0 in 107.00 W/m2 unknown
15:29 78.8 °F 71.6 °F 29.9 in East 6.8 mph 6.8 mph 78% 0 in 90.00 W/m2 unknown
15:34 78.8 °F 71.6 °F 29.9 in ENE 6.8 mph 8.1 mph 79% 0 in 109.00 W/m2 unknown
15:39 78.8 °F 71.6 °F 29.9 in ENE 8.7 mph 8.7 mph 79% 0 in 86.00 W/m2 unknown
15:44 78.8 °F 71.6 °F 29.9 in East 6.8 mph 6.8 mph 79% 0 in 72.00 W/m2 unknown
15:49 78.8 °F 71.6 °F 29.9 in ENE 6.2 mph 8.7 mph 80% 0 in 100.00 W/m2 unknown
15:54 78.8 °F 71.6 °F 29.9 in ENE 6.2 mph 6.8 mph 79% 0 in 102.00 W/m2 unknown
15:59 78.8 °F 71.6 °F 29.9 in East 5 mph 6.2 mph 80% 0 in 107.00 W/m2 unknown
16:04 78.8 °F 71.6 °F 29.9 in East 6.8 mph 6.8 mph 79% 0 in 98.00 W/m2 unknown
16:09 78.8 °F 71.6 °F 29.9 in East 8.7 mph 8.7 mph 79% 0 in 107.00 W/m2 unknown
16:14 78.8 °F 71.6 °F 29.9 in East 6.8 mph 8.7 mph 78% 0 in 149.00 W/m2 unknown
16:19 78.8 °F 71.6 °F 29.9 in East 3.7 mph 6.2 mph 78% 0 in 267.00 W/m2 unknown
16:24 78.8 °F 71.6 °F 29.9 in ENE 6.2 mph 6.2 mph 78% 0 in 250.00 W/m2 unknown
16:29 78.8 °F 71.6 °F 29.9 in NE 5 mph 5 mph 78% 0 in 264.00 W/m2 unknown
16:34 78.8 °F 71.6 °F 29.9 in ENE 6.2 mph 6.2 mph 77% 0 in 294.00 W/m2 unknown
16:39 78.8 °F 71.6 °F 29.9 in NE 8.1 mph 8.1 mph 77% 0 in 279.00 W/m2 unknown
16:43 78.8 °F 71.6 °F 29.9 in ENE 6.2 mph 6.2 mph 77% 0 in 149.00 W/m2 unknown
16:49 78.8 °F 71.6 °F 29.9 in NE 6.8 mph 9.9 mph 77% 0 in 186.00 W/m2 unknown
16:54 78.8 °F 71.6 °F 29.9 in NE 6.8 mph 6.8 mph 79% 0 in 202.00 W/m2 unknown
16:59 78.8 °F 71.6 °F 29.9 in NE 6.2 mph 6.8 mph 79% 0 in 227.00 W/m2 unknown
17:04 78.8 °F 71.6 °F 29.9 in NE 9.9 mph 9.9 mph 80% 0 in 209.00 W/m2 unknown
17:09 78.8 °F 71.6 °F 29.9 in NE 13 mph 13 mph 81% 0 in 149.00 W/m2 unknown
17:14 78.8 °F 71.6 °F 29.9 in NE 11.8 mph 11.8 mph 82% 0 in 142.00 W/m2 unknown
17:19 78.8 °F 71.6 °F 29.9 in ENE 9.9 mph 13 mph 82% 0 in 174.00 W/m2 unknown
17:23 78.8 °F 71.6 °F 29.9 in ESE 8.1 mph 8.1 mph 79% 0 in 214.00 W/m2 unknown
17:29 78.8 °F 71.6 °F 29.9 in ESE 9.9 mph 9.9 mph 78% 0 in 272.00 W/m2 unknown
17:34 78.8 °F 71.6 °F 29.9 in SE 14.9 mph 14.9 mph 78% 0 in 687.00 W/m2 unknown
17:39 78.8 °F 71.6 °F 29.9 in ESE 11.2 mph 14.9 mph 77% 0 in 248.00 W/m2 unknown
17:44 80.6 °F 71.6 °F 29.9 in SE 11.2 mph 14.9 mph 77% 0 in 745.00 W/m2 unknown
17:49 80.6 °F 71.6 °F 29.9 in SE 13 mph 13 mph 76% 0 in 780.00 W/m2 unknown
17:53 80.6 °F 71.6 °F 29.9 in ESE 8.1 mph 13 mph 74% 0 in 566.00 W/m2 unknown
17:59 80.6 °F 71.6 °F 29.9 in SE 8.1 mph 8.1 mph 74% 0 in 364.00 W/m2 unknown
18:04 80.6 °F 71.6 °F 29.9 in SE 11.2 mph 11.2 mph 74% 0 in 635.00 W/m2 unknown
18:09 80.6 °F 71.6 °F 29.9 in ESE 9.9 mph 11.2 mph 75% 0 in 636.00 W/m2 unknown
18:14 80.6 °F 71.6 °F 29.9 in SE 11.2 mph 11.2 mph 74% 0 in 694.00 W/m2 unknown
18:18 80.6 °F 71.6 °F 29.9 in ESE 13 mph 13 mph 75% 0 in 529.00 W/m2 unknown
18:24 80.6 °F 71.6 °F 29.9 in ESE 8.1 mph 8.1 mph 75% 0 in 475.00 W/m2 unknown
18:29 80.6 °F 71.6 °F 29.9 in ESE 14.3 mph 14.3 mph 75% 0 in 250.00 W/m2 unknown
18:34 78.8 °F 71.6 °F 29.9 in ESE 8.7 mph 14.3 mph 76% 0 in 118.00 W/m2 unknown
18:39 78.8 °F 69.8 °F 29.9 in ESE 6.8 mph 8.7 mph 76% 0 in 265.00 W/m2 unknown
18:44 78.8 °F 69.8 °F 29.9 in ESE 8.7 mph 8.7 mph 76% 0 in 109.00 W/m2 unknown
18:49 78.8 °F 69.8 °F 29.9 in SE 9.9 mph 11.2 mph 76% 0 in 211.00 W/m2 unknown
18:54 78.8 °F 69.8 °F 29.9 in ESE 8.7 mph 8.7 mph 77% 0 in 236.00 W/m2 unknown
18:59 78.8 °F 69.8 °F 29.9 in SE 11.2 mph 11.2 mph 76% 0 in 255.00 W/m2 unknown
19:04 77 °F 69.8 °F 29.9 in SE 8.1 mph 8.1 mph 76% 0 in 185.00 W/m2 unknown
19:09 77 °F 69.8 °F 29.9 in SE 9.9 mph 9.9 mph 76% 0 in 169.00 W/m2 unknown
19:14 77 °F 69.8 °F 29.9 in SE 11.2 mph 11.2 mph 76% 0 in 179.00 W/m2 unknown
19:19 77 °F 69.8 °F 29.9 in SE 8.7 mph 11.8 mph 76% 0 in 178.00 W/m2 unknown
19:24 77 °F 69.8 °F 29.9 in SE 6.2 mph 11.2 mph 76% 0 in 186.00 W/m2 unknown
19:29 77 °F 69.8 °F 29.9 in ESE 5 mph 6.2 mph 77% 0 in 141.00 W/m2 unknown
19:34 77 °F 69.8 °F 29.9 in SE 8.7 mph 9.9 mph 77% 0 in 120.00 W/m2 unknown
19:38 77 °F 69.8 °F 29.9 in ESE 6.2 mph 6.2 mph 77% 0 in 118.00 W/m2 unknown
19:44 77 °F 69.8 °F 29.9 in ESE 9.9 mph 9.9 mph 78% 0 in 160.00 W/m2 unknown
19:49 77 °F 69.8 °F 29.9 in SSE 8.7 mph 9.9 mph 78% 0 in 160.00 W/m2 unknown
19:54 77 °F 69.8 °F 29.9 in SE 8.7 mph 8.7 mph 78% 0 in 120.00 W/m2 unknown
19:59 77 °F 69.8 °F 29.9 in SE 6.8 mph 8.7 mph 80% 0 in 120.00 W/m2 unknown
20:04 77 °F 69.8 °F 29.9 in SE 6.8 mph 8.7 mph 80% 0 in 104.00 W/m2 unknown
20:09 77 °F 69.8 °F 29.9 in SE 8.7 mph 8.7 mph 80% 0 in 51.00 W/m2 unknown
20:14 75.2 °F 69.8 °F 29.9 in SE 5 mph 5 mph 80% 0 in 44.00 W/m2 unknown
20:19 75.2 °F 69.8 °F 29.9 in SE 8.1 mph 8.7 mph 80% 0 in 42.00 W/m2 unknown
20:24 75.2 °F 69.8 °F 29.9 in SE 6.2 mph 8.1 mph 80% 0 in 40.00 W/m2 unknown
20:29 75.2 °F 69.8 °F 29.9 in SE 6.2 mph 6.2 mph 81% 0 in 35.00 W/m2 unknown
20:34 75.2 °F 69.8 °F 29.9 in SE 5 mph 6.2 mph 81% 0 in 26.00 W/m2 unknown
20:39 75.2 °F 69.8 °F 29.9 in SE 6.2 mph 6.2 mph 81% 0 in 18.00 W/m2 unknown
20:44 75.2 °F 69.8 °F 29.9 in SE 5 mph 6.2 mph 82% 0 in 9.00 W/m2 unknown
20:48 75.2 °F 69.8 °F 29.9 in East 3.7 mph 6.2 mph 82% 0 in 11.00 W/m2 unknown
20:54 75.2 °F 69.8 °F 29.9 in ESE 5 mph 5 mph 82% 0 in 12.00 W/m2 unknown
20:59 75.2 °F 69.8 °F 29.9 in ENE 5 mph 5 mph 82% 0 in 12.00 W/m2 unknown
21:04 75.2 °F 69.8 °F 29.9 in East 5 mph 6.2 mph 82% 0 in 7.00 W/m2 unknown
21:09 75.2 °F 68 °F 29.9 in East 3.7 mph 5 mph 82% 0 in 7.00 W/m2 unknown
21:14 75.2 °F 68 °F 29.9 in East 5 mph 5 mph 82% 0 in 5.00 W/m2 unknown
21:19 75.2 °F 69.8 °F 29.9 in East 6.8 mph 6.8 mph 83% 0 in 7.00 W/m2 unknown
21:24 75.2 °F 69.8 °F 29.9 in ESE 6.2 mph 6.2 mph 83% 0 in 5.00 W/m2 unknown
21:28 75.2 °F 69.8 °F 29.9 in ESE 6.2 mph 6.2 mph 83% 0 in 0.00 W/m2 unknown
21:34 73.4 °F 69.8 °F 29.9 in East 5 mph 8.1 mph 83% 0 in 0.00 W/m2 unknown
21:39 73.4 °F 69.8 °F 29.9 in East 6.2 mph 6.2 mph 84% 0 in 0.00 W/m2 unknown
21:44 73.4 °F 68 °F 29.9 in East 3.7 mph 3.7 mph 84% 0 in 0.00 W/m2 unknown
21:49 73.4 °F 69.8 °F 29.9 in ENE 3.7 mph 6.2 mph 84% 0 in 0.00 W/m2 unknown
21:54 73.4 °F 68 °F 29.9 in ENE 5 mph 5 mph 85% 0 in 0.00 W/m2 unknown
21:59 73.4 °F 68 °F 29.9 in East 3.7 mph 5 mph 85% 0 in 0.00 W/m2 unknown
22:03 73.4 °F 69.8 °F 29.9 in East 1.9 mph 5 mph 85% 0 in 0.00 W/m2 unknown
22:09 73.4 °F 69.8 °F 29.9 in East 3.1 mph 3.1 mph 86% 0 in 0.00 W/m2 unknown
22:14 73.4 °F 69.8 °F 29.9 in ENE 1.9 mph 3.1 mph 86% 0 in 0.00 W/m2 unknown
22:18 73.4 °F 69.8 °F 29.9 in NE 1.9 mph 1.9 mph 86% 0 in 0.00 W/m2 unknown
22:24 73.4 °F 69.8 °F 29.9 in ENE 3.7 mph 3.7 mph 86% 0 in 0.00 W/m2 unknown
22:29 73.4 °F 69.8 °F 29.9 in ENE 3.1 mph 3.7 mph 86% 0 in 0.00 W/m2 unknown
22:34 73.4 °F 69.8 °F 29.9 in NE 1.9 mph 3.7 mph 86% 0 in 0.00 W/m2 unknown
22:39 73.4 °F 68 °F 29.9 in ENE 1.9 mph 1.9 mph 86% 0 in 0.00 W/m2 unknown
22:43 73.4 °F 69.8 °F 29.9 in Calm   1.9 mph 87% 0 in 0.00 W/m2 unknown
22:49 73.4 °F 69.8 °F 29.9 in NE 1.9 mph 1.9 mph 87% 0 in 0.00 W/m2 unknown
22:54 73.4 °F 68 °F 29.9 in North 1.2 mph 1.9 mph 87% 0 in 0.00 W/m2 unknown
22:59 73.4 °F 68 °F 29.9 in NW 1.2 mph 1.2 mph 87% 0 in 0.00 W/m2 unknown
23:04 73.4 °F 69.8 °F 29.9 in NW 1.2 mph 1.9 mph 87% 0 in 0.00 W/m2 unknown
23:08 73.4 °F 69.8 °F 29.9 in West 1.2 mph 1.2 mph 88% 0 in 0.00 W/m2 unknown
23:14 73.4 °F 69.8 °F 29.9 in West 1.2 mph 1.2 mph 88% 0 in 0.00 W/m2 unknown
23:19 73.4 °F 69.8 °F 29.9 in West 1.9 mph 1.9 mph 88% 0 in 0.00 W/m2 unknown
23:24 71.6 °F 68 °F 29.9 in West 1.9 mph 1.9 mph 88% 0 in 0.00 W/m2 unknown
23:29 71.6 °F 68 °F 29.9 in West 1.9 mph 1.9 mph 88% 0 in 0.00 W/m2 unknown
23:34 71.6 °F 69.8 °F 29.9 in West 1.9 mph 1.9 mph 89% 0 in 0.00 W/m2 unknown
23:39 71.6 °F 68 °F 29.9 in West 3.1 mph 3.1 mph 89% 0 in 0.00 W/m2 unknown
23:44 71.6 °F 68 °F 29.9 in West 3.1 mph 3.1 mph 89% 0 in 0.00 W/m2 unknown
23:49 71.6 °F 68 °F 29.9 in West 3.1 mph 3.1 mph 89% 0 in 0.00 W/m2 unknown
Datos historicos para Xert